Time;durP1;ratioP1;P1;durP2;ratioP2;P2;SDS_P1;SDS_P2;PMS_P1;PMS_P2;Temp;Humidity;BMP_temperature;BMP_pressure;BME280_temperature;BME280_humidity;BME280_pressure;Samples;Min_cycle;Max_cycle;Signal;HPM_P1;HPM_P2
2022/05/26 00:01:50;;;;;;;1.17;0.32;;;19.00;59.70;;;;;;5118663;27;20035;-72
2022/05/26 00:04:16;;;;;;;2.00;0.30;;;19.00;59.70;;;;;;5136795;27;20039;-73
2022/05/26 00:06:42;;;;;;;1.95;0.30;;;19.00;59.70;;;;;;5118460;27;20039;-73
2022/05/26 00:09:07;;;;;;;1.17;0.50;;;19.00;59.70;;;;;;5118297;27;20043;-72
2022/05/26 00:11:35;;;;;;;1.23;0.38;;;18.90;59.70;;;;;;5118448;27;20043;-73
2022/05/26 00:14:08;;;;;;;1.40;0.40;;;19.00;59.70;;;;;;5118463;27;20054;-72
2022/05/26 00:16:35;;;;;;;2.05;0.68;;;18.90;59.70;;;;;;5118237;27;20472;-73
2022/05/26 00:19:01;;;;;;;2.40;0.60;;;18.90;59.80;;;;;;5117989;27;20046;-72
2022/05/26 00:21:27;;;;;;;1.83;0.50;;;18.90;59.80;;;;;;5118013;27;20039;-74
2022/05/26 00:23:55;;;;;;;1.70;0.40;;;18.90;59.80;;;;;;5118010;27;20035;-66
2022/05/26 00:26:21;;;;;;;4.65;0.90;;;18.90;59.80;;;;;;5136409;27;20136;-73
2022/05/26 00:28:46;;;;;;;2.47;0.75;;;18.90;59.90;;;;;;5136310;27;20482;-73
2022/05/26 00:31:12;;;;;;;1.35;0.40;;;18.90;59.90;;;;;;5118075;27;20039;-73
2022/05/26 00:33:41;;;;;;;3.25;0.50;;;18.90;60.00;;;;;;5118059;27;20138;-74
2022/05/26 00:36:09;;;;;;;2.08;0.60;;;18.90;60.00;;;;;;5117965;27;20176;-73
2022/05/26 00:38:35;;;;;;;2.15;0.55;;;18.90;60.00;;;;;;5135812;27;20051;-69
2022/05/26 00:41:04;;;;;;;2.97;0.70;;;18.90;60.00;;;;;;5117742;27;20034;-73
2022/05/26 00:43:30;;;;;;;2.43;0.60;;;18.90;60.00;;;;;;5127290;27;20085;-73
2022/05/26 00:46:05;;;;;;;1.55;0.55;;;18.90;60.00;;;;;;5138008;27;20070;-72
2022/05/26 00:48:40;;;;;;;2.35;0.60;;;18.90;60.10;;;;;;5138384;27;20118;-73
2022/05/26 00:51:07;;;;;;;1.17;0.47;;;18.90;60.10;;;;;;5137970;27;20092;-72
2022/05/26 00:53:39;;;;;;;1.98;0.70;;;18.90;60.10;;;;;;5138171;27;20091;-74
2022/05/26 00:56:14;;;;;;;1.77;0.60;;;18.90;60.20;;;;;;5138146;27;20074;-72
2022/05/26 00:58:44;;;;;;;1.77;0.70;;;18.90;60.20;;;;;;5137771;27;20117;-73
2022/05/26 01:01:11;;;;;;;2.05;0.88;;;18.90;60.20;;;;;;5156425;27;20039;-73
2022/05/26 01:03:44;;;;;;;2.58;0.60;;;18.90;60.20;;;;;;5156369;27;20477;-72
2022/05/26 01:06:16;;;;;;;2.72;1.52;;;18.90;60.30;;;;;;5138025;27;20049;-73
2022/05/26 01:08:55;;;;;;;2.42;0.73;;;18.90;60.40;;;;;;5156216;27;20047;-73
2022/05/26 01:11:24;;;;;;;1.58;0.60;;;18.90;60.40;;;;;;5137385;27;20043;-72
2022/05/26 01:13:55;;;;;;;3.05;0.98;;;18.80;60.30;;;;;;5156169;27;20099;-71
2022/05/26 01:22:45;;;;;;;2.35;1.48;;;18.80;60.50;;;;;;5130116;27;20411;-72
2022/05/26 01:25:50;;;;;;;2.60;0.88;;;18.80;60.50;;;;;;5128809;27;20047;-72
2022/05/26 01:40:35;;;;;;;2.33;1.25;;;18.80;60.60;;;;;;5130357;27;20419;-72
2022/05/26 01:54:18;;;;;;;3.58;0.98;;;18.80;60.80;;;;;;5130359;27;20346;-72
2022/05/26 01:56:52;;;;;;;2.97;0.98;;;18.80;60.70;;;;;;5146106;27;20126;-72
2022/05/26 02:02:09;;;;;;;3.40;0.80;;;18.80;60.70;;;;;;5127283;27;1854553;-72
2022/05/26 02:04:40;;;;;;;3.20;1.30;;;18.80;60.80;;;;;;5135865;27;20121;-73
2022/05/26 02:07:16;;;;;;;2.03;0.93;;;18.80;61.60;;;;;;5153221;27;20058;-72
2022/05/26 02:09:43;;;;;;;1.75;0.90;;;18.80;60.90;;;;;;5153323;27;20038;-73
2022/05/26 02:12:19;;;;;;;3.47;0.95;;;18.80;60.90;;;;;;5153011;27;20053;-72
2022/05/26 02:14:50;;;;;;;2.47;0.82;;;18.80;60.90;;;;;;5153170;27;20038;-74
2022/05/26 02:17:19;;;;;;;;;;;18.80;60.90;;;;;;5153398;27;20049;-73
2022/05/26 02:19:51;;;;;;;2.03;0.93;;;18.80;61.00;;;;;;5171267;27;19915;-73
2022/05/26 02:22:23;;;;;;;2.83;0.85;;;18.80;60.90;;;;;;5171727;27;20041;-73
2022/05/26 02:27:33;;;;;;;2.83;1.00;;;18.80;61.00;;;;;;5089487;27;20405;-72
2022/05/26 02:30:01;;;;;;;3.88;1.05;;;18.80;61.00;;;;;;5088001;28;20076;-72
2022/05/26 02:32:35;;;;;;;4.63;1.27;;;18.80;61.00;;;;;;5088360;28;20048;-73
2022/05/26 02:35:06;;;;;;;3.13;0.82;;;18.80;61.00;;;;;;5088248;28;20075;-73
2022/05/26 02:37:32;;;;;;;3.58;1.30;;;18.70;61.00;;;;;;5088055;28;20123;-72
2022/05/26 02:39:58;;;;;;;4.72;1.67;;;18.80;61.00;;;;;;5088197;28;20083;-73
2022/05/26 02:42:25;;;;;;;3.00;0.93;;;18.70;61.00;;;;;;5087855;28;20411;-66
2022/05/26 02:44:52;;;;;;;2.13;0.95;;;18.70;61.00;;;;;;5087713;28;20054;-73
2022/05/26 02:47:42;;;;;;;2.70;1.15;;;18.70;61.00;;;;;;5087747;28;20040;-73
2022/05/26 02:53:17;;;;;;;3.53;1.63;;;18.70;61.10;;;;;;5152427;27;1173234;-73
2022/05/26 02:56:09;;;;;;;3.53;1.30;;;18.80;61.10;;;;;;5153008;27;20058;-72
2022/05/26 02:59:15;;;;;;;3.33;1.33;;;18.70;61.00;;;;;;5153041;27;20047;-74
2022/05/26 03:01:47;;;;;;;2.90;1.08;;;18.70;61.20;;;;;;5171158;27;20069;-74
2022/05/26 03:04:19;;;;;;;3.08;1.00;;;18.80;61.20;;;;;;5153005;27;20058;-74
2022/05/26 03:06:54;;;;;;;3.22;1.30;;;18.70;61.20;;;;;;5171611;27;20042;-74
2022/05/26 03:09:21;;;;;;;5.40;1.40;;;18.70;61.20;;;;;;5153130;27;20085;-74
2022/05/26 03:14:27;;;;;;;3.50;1.23;;;18.80;61.30;;;;;;5130317;27;20383;-74
2022/05/26 03:16:53;;;;;;;3.35;1.05;;;18.70;61.20;;;;;;5146430;27;20473;-74
2022/05/26 03:19:19;;;;;;;3.63;1.35;;;18.70;61.20;;;;;;5129219;28;20082;-73
2022/05/26 03:21:45;;;;;;;4.03;1.23;;;18.70;61.20;;;;;;5128844;28;20035;-74
2022/05/26 03:24:12;;;;;;;4.32;1.05;;;18.70;61.20;;;;;;5128832;27;20043;-73
2022/05/26 03:26:38;;;;;;;2.72;1.17;;;18.70;61.20;;;;;;5128905;28;20039;-74
2022/05/26 03:29:06;;;;;;;4.65;1.00;;;18.70;61.20;;;;;;5128754;28;20047;-73
2022/05/26 03:31:32;;;;;;;2.78;1.00;;;18.70;61.20;;;;;;5128656;28;20043;-74
2022/05/26 03:42:17;;;;;;;5.43;1.48;;;18.70;61.30;;;;;;5129662;28;20461;-74
2022/05/26 03:44:44;;;;;;;3.63;1.20;;;18.70;61.30;;;;;;5128583;28;20078;-71
2022/05/26 03:47:09;;;;;;;5.35;1.27;;;18.70;62.00;;;;;;5128624;28;20039;-74
2022/05/26 03:49:35;;;;;;;5.45;1.30;;;18.70;61.30;;;;;;5128664;28;20406;-74
2022/05/26 03:52:01;;;;;;;6.05;1.92;;;18.70;61.30;;;;;;5128316;28;20169;-73
2022/05/26 03:54:30;;;;;;;5.60;1.50;;;18.70;61.30;;;;;;5128585;28;20386;-75
2022/05/26 03:56:56;;;;;;;4.07;1.30;;;18.70;61.30;;;;;;5128191;28;20048;-74
2022/05/26 03:59:22;;;;;;;5.03;1.30;;;18.70;61.30;;;;;;5128204;28;20043;-73
2022/05/26 04:01:47;;;;;;;3.75;1.13;;;18.70;61.20;;;;;;5128174;28;20043;-74
2022/05/26 04:04:14;;;;;;;3.25;1.27;;;18.70;61.20;;;;;;5128014;28;20087;-66
2022/05/26 04:06:39;;;;;;;3.97;1.65;;;18.80;61.30;;;;;;5129213;27;20043;-74
2022/05/26 04:09:05;;;;;;;2.65;1.50;;;18.70;61.20;;;;;;5127874;28;20494;-74
2022/05/26 04:11:31;;;;;;;4.10;1.15;;;18.70;61.90;;;;;;5127983;28;20051;-74
2022/05/26 04:13:56;;;;;;;4.55;1.50;;;18.70;61.20;;;;;;5127123;28;20039;-74
2022/05/26 04:16:23;;;;;;;4.70;0.90;;;18.70;61.20;;;;;;5127820;28;20051;-74
2022/05/26 04:18:51;;;;;;;2.97;0.82;;;18.70;61.20;;;;;;5127692;28;20039;-74
2022/05/26 04:21:17;;;;;;;3.45;1.20;;;18.80;61.20;;;;;;5127999;28;20493;-70
2022/05/26 04:23:43;;;;;;;3.63;1.40;;;18.70;61.10;;;;;;5125799;28;20035;-74
2022/05/26 04:26:09;;;;;;;3.75;1.42;;;18.70;61.20;;;;;;5114076;28;20051;-74
2022/05/26 04:28:36;;;;;;;2.53;1.10;;;18.70;61.20;;;;;;5113891;28;20043;-74
2022/05/26 04:31:03;;;;;;;2.83;0.95;;;18.70;61.10;;;;;;5115168;28;20047;-74
2022/05/26 04:33:29;;;;;;;3.67;1.05;;;18.70;61.10;;;;;;5113750;28;20053;-74
2022/05/26 04:35:54;;;;;;;3.33;0.80;;;18.80;61.10;;;;;;5114091;28;20043;-74
2022/05/26 04:38:20;;;;;;;2.90;0.88;;;18.80;61.00;;;;;;5113637;28;20642;-74
2022/05/26 04:40:57;;;;;;;3.67;0.95;;;18.70;61.00;;;;;;5113999;28;20040;-73
2022/05/26 04:43:22;;;;;;;2.40;0.90;;;18.80;61.00;;;;;;5114991;28;20046;-73
2022/05/26 04:45:48;;;;;;;4.20;1.13;;;18.70;60.90;;;;;;5114662;28;20402;-74
2022/05/26 04:48:16;;;;;;;3.65;0.70;;;18.70;60.90;;;;;;5113803;28;20035;-66
2022/05/26 04:50:42;;;;;;;2.80;0.75;;;18.80;60.90;;;;;;5113421;28;20075;-74
2022/05/26 04:53:08;;;;;;;5.38;1.25;;;18.70;60.90;;;;;;5113392;28;20039;-74
2022/05/26 04:55:37;;;;;;;3.80;0.98;;;18.80;60.80;;;;;;5113406;28;20046;-74
2022/05/26 04:58:02;;;;;;;2.75;0.80;;;18.80;60.80;;;;;;5113604;28;20084;-74
2022/05/26 05:00:28;;;;;;;3.13;0.77;;;18.80;60.70;;;;;;5114580;28;20043;-72
2022/05/26 05:02:54;;;;;;;3.08;0.90;;;18.80;60.70;;;;;;5113488;28;20130;-74
2022/05/26 05:05:19;;;;;;;3.40;1.10;;;18.80;60.60;;;;;;5113117;28;20043;-74
2022/05/26 05:07:45;;;;;;;3.63;1.17;;;18.80;60.60;;;;;;5113193;28;20043;-74
2022/05/26 05:10:11;;;;;;;2.88;0.80;;;18.80;60.50;;;;;;5113370;28;20116;-74
2022/05/26 05:12:40;;;;;;;2.35;0.50;;;18.80;60.50;;;;;;5114135;28;20510;-75
2022/05/26 05:15:12;;;;;;;4.00;1.38;;;18.80;60.60;;;;;;5113073;28;20051;-67
2022/05/26 05:17:38;;;;;;;2.28;0.75;;;18.80;60.40;;;;;;5113043;28;20226;-74
2022/05/26 05:20:04;;;;;;;4.20;0.57;;;18.80;60.40;;;;;;5113023;28;20088;-74
2022/05/26 05:22:36;;;;;;;3.15;0.73;;;18.80;60.30;;;;;;5113208;28;20036;-74
2022/05/26 05:25:09;;;;;;;3.17;0.90;;;18.80;60.30;;;;;;5112888;28;20082;-74
2022/05/26 05:30:23;;;;;;;3.10;0.57;;;18.90;60.30;;;;;;5130315;27;20440;-66
2022/05/26 05:32:56;;;;;;;2.15;0.60;;;18.80;60.20;;;;;;5129272;28;20061;-74
2022/05/26 05:35:28;;;;;;;2.95;0.50;;;18.80;60.20;;;;;;5129150;28;20104;-74
2022/05/26 05:37:57;;;;;;;4.40;1.00;;;18.80;60.10;;;;;;5129190;28;20051;-73
2022/05/26 05:40:23;;;;;;;2.55;0.60;;;18.80;60.10;;;;;;5130064;27;20035;-74
2022/05/26 05:42:49;;;;;;;4.75;0.73;;;18.90;60.10;;;;;;5129070;28;20526;-74
2022/05/26 05:45:15;;;;;;;1.83;0.75;;;18.80;60.00;;;;;;5128639;28;20122;-73
2022/05/26 05:47:40;;;;;;;2.00;0.45;;;18.90;60.00;;;;;;5130157;28;20035;-74
2022/05/26 05:50:06;;;;;;;4.35;0.80;;;18.90;60.00;;;;;;5130174;28;20074;-74
2022/05/26 05:52:32;;;;;;;2.58;0.60;;;18.90;60.00;;;;;;5129003;28;20042;-75
2022/05/26 05:54:58;;;;;;;2.65;0.65;;;18.90;59.90;;;;;;5130003;27;20479;-74
2022/05/26 05:57:24;;;;;;;2.50;0.88;;;18.90;59.80;;;;;;5128706;28;20470;-73
2022/05/26 05:59:50;;;;;;;2.88;0.75;;;18.90;59.80;;;;;;5128503;28;20039;-75
2022/05/26 06:02:16;;;;;;;3.47;0.90;;;19.00;59.80;;;;;;5128261;28;20040;-67
2022/05/26 06:04:42;;;;;;;2.35;0.95;;;18.90;59.70;;;;;;5128651;28;20122;-74
2022/05/26 06:07:15;;;;;;;2.13;0.45;;;19.00;59.70;;;;;;5128576;28;20201;-74
2022/05/26 06:09:41;;;;;;;2.25;0.40;;;19.00;59.60;;;;;;5128335;28;20043;-74
2022/05/26 06:12:08;;;;;;;3.13;0.75;;;18.90;59.50;;;;;;5129520;27;20032;-73
2022/05/26 06:14:34;;;;;;;3.95;1.33;;;18.90;59.50;;;;;;5128410;28;20044;-74
2022/05/26 06:17:00;;;;;;;2.13;0.60;;;19.00;59.60;;;;;;5128327;28;20042;-74
2022/05/26 06:19:26;;;;;;;2.05;0.30;;;19.00;59.50;;;;;;5128391;28;20039;-73
2022/05/26 06:21:52;;;;;;;2.03;0.50;;;19.00;59.50;;;;;;5127921;28;20510;-73
2022/05/26 06:24:22;;;;;;;1.75;0.47;;;19.00;59.40;;;;;;5129373;27;20070;-74
2022/05/26 06:26:48;;;;;;;1.50;0.45;;;19.00;59.30;;;;;;5128015;28;20047;-74
2022/05/26 06:37:31;;;;;;;2.35;0.50;;;19.20;59.00;;;;;;5127570;28;20054;-73
2022/05/26 06:39:57;;;;;;;1.63;0.45;;;19.10;58.90;;;;;;5124777;27;20039;-74
2022/05/26 06:42:26;;;;;;;2.80;0.50;;;19.20;58.80;;;;;;5113812;28;20441;-74
2022/05/26 06:44:52;;;;;;;2.65;0.77;;;19.10;58.70;;;;;;5115097;28;20122;-74
2022/05/26 06:47:20;;;;;;;1.98;0.65;;;19.20;58.70;;;;;;5115365;28;20069;-73
2022/05/26 06:49:47;;;;;;;1.75;0.50;;;19.20;58.60;;;;;;5115184;28;20054;-73
2022/05/26 06:52:15;;;;;;;2.80;0.60;;;19.20;58.50;;;;;;5113699;28;20114;-74
2022/05/26 06:54:44;;;;;;;1.75;0.32;;;19.20;58.40;;;;;;5113821;28;20139;-73
2022/05/26 06:57:11;;;;;;;2.53;0.57;;;19.30;58.40;;;;;;5113965;28;20035;-73
2022/05/26 06:59:37;;;;;;;1.38;0.60;;;19.30;58.30;;;;;;5113902;28;20051;-73
2022/05/26 07:02:08;;;;;;;3.65;0.55;;;19.30;58.20;;;;;;5113617;28;20054;-73
2022/05/26 07:04:34;;;;;;;2.90;0.40;;;19.30;58.10;;;;;;5113509;28;20043;-74
2022/05/26 07:07:01;;;;;;;1.65;0.30;;;19.40;58.00;;;;;;5113808;28;20153;-69
2022/05/26 07:09:28;;;;;;;1.75;0.55;;;19.40;57.90;;;;;;5114562;28;20069;-74
2022/05/26 07:11:54;;;;;;;1.30;0.40;;;19.40;57.80;;;;;;5114966;28;20390;-67
2022/05/26 07:14:20;;;;;;;2.42;0.35;;;19.40;57.70;;;;;;5114849;28;20028;-73
2022/05/26 07:16:47;;;;;;;0.95;0.20;;;19.40;57.60;;;;;;5113350;28;20035;-73
2022/05/26 07:19:14;;;;;;;1.65;0.30;;;19.50;57.50;;;;;;5113395;28;20096;-74
2022/05/26 07:21:43;;;;;;;1.40;0.98;;;19.50;57.50;;;;;;5113242;28;20044;-73
2022/05/26 07:24:13;;;;;;;0.93;0.47;;;19.50;57.40;;;;;;5113025;28;20498;-73
2022/05/26 07:26:40;;;;;;;0.95;0.30;;;19.50;57.30;;;;;;5113155;28;20047;-73
2022/05/26 07:29:06;;;;;;;3.55;0.38;;;19.50;57.20;;;;;;5114178;27;20142;-73
2022/05/26 07:31:31;;;;;;;0.77;0.20;;;19.50;57.10;;;;;;5113039;28;20079;-74
2022/05/26 07:33:57;;;;;;;1.33;0.30;;;19.60;57.10;;;;;;5113391;28;20039;-73
2022/05/26 07:41:59;;;;;;;2.03;0.40;;;19.60;56.90;;;;;;5112446;28;20040;-74
2022/05/26 07:44:25;;;;;;;;;;;19.70;56.80;;;;;;5114398;28;20058;-73
2022/05/26 07:46:51;;;;;;;0.95;0.30;;;19.70;56.60;;;;;;5113998;28;20014;-73
2022/05/26 07:49:17;;;;;;;1.45;0.30;;;19.70;56.60;;;;;;5112598;28;20131;-73
2022/05/26 07:51:43;;;;;;;1.00;0.28;;;19.70;56.50;;;;;;5111620;28;20044;-74
2022/05/26 07:54:09;;;;;;;1.50;0.20;;;19.80;56.40;;;;;;5112929;28;20040;-74
2022/05/26 07:56:36;;;;;;;1.42;0.30;;;19.80;56.20;;;;;;5112663;28;20122;-73
2022/05/26 07:59:06;;;;;;;1.85;0.30;;;19.80;56.10;;;;;;5113810;28;20035;-72
2022/05/26 08:01:33;;;;;;;2.05;0.30;;;19.90;56.10;;;;;;5113774;28;20122;-73
2022/05/26 08:03:58;;;;;;;2.08;0.20;;;19.90;55.90;;;;;;5112393;28;20041;-73
2022/05/26 08:06:24;;;;;;;1.95;0.30;;;19.90;55.80;;;;;;5113545;28;20039;-74
2022/05/26 08:08:51;;;;;;;1.38;0.20;;;19.90;55.80;;;;;;5112325;28;20052;-73
2022/05/26 08:11:16;;;;;;;0.50;0.10;;;19.80;55.80;;;;;;5112515;28;20092;-74
2022/05/26 08:13:42;;;;;;;0.90;0.20;;;19.80;55.80;;;;;;5112208;28;20031;-73
2022/05/26 08:16:08;;;;;;;1.65;0.32;;;19.80;55.70;;;;;;5112105;28;20040;-73
2022/05/26 08:18:35;;;;;;;0.82;0.17;;;19.80;55.70;;;;;;5111993;28;20054;-73
2022/05/26 08:21:18;;;;;;;2.42;0.30;;;19.80;55.70;;;;;;5112004;28;20093;-74
2022/05/26 08:23:45;;;;;;;1.48;0.20;;;19.80;55.60;;;;;;5113405;28;20039;-73
2022/05/26 08:26:11;;;;;;;1.05;0.20;;;19.90;55.70;;;;;;5112202;28;20457;-74
2022/05/26 08:28:37;;;;;;;1.90;0.47;;;19.90;55.60;;;;;;5111644;28;20513;-73
2022/05/26 08:31:04;;;;;;;1.80;0.20;;;19.90;55.50;;;;;;5111725;28;20126;-73
2022/05/26 08:33:30;;;;;;;1.42;0.13;;;19.90;55.40;;;;;;5111851;28;20059;-74
2022/05/26 08:36:06;;;;;;;1.08;0.40;;;20.00;55.40;;;;;;5111685;28;20101;-73
2022/05/26 08:38:32;;;;;;;0.35;0.10;;;20.00;55.30;;;;;;5113082;28;20047;-65
2022/05/26 08:40:59;;;;;;;0.82;0.20;;;20.00;55.10;;;;;;5111713;28;20499;-72
2022/05/26 08:43:32;;;;;;;1.17;0.17;;;20.10;55.00;;;;;;5112800;28;20051;-74
2022/05/26 08:45:58;;;;;;;1.38;0.10;;;20.10;54.80;;;;;;5112823;28;20039;-73
2022/05/26 08:48:38;;;;;;;2.15;0.30;;;20.20;54.60;;;;;;5111403;28;20488;-73
2022/05/26 08:51:07;;;;;;;0.50;0.10;;;20.30;54.50;;;;;;5111602;28;20043;-73
2022/05/26 08:53:37;;;;;;;0.82;0.10;;;20.40;54.20;;;;;;5111713;28;20072;-73
2022/05/26 08:56:04;;;;;;;1.00;0.30;;;20.40;53.80;;;;;;5111698;28;20157;-73
2022/05/26 08:58:41;;;;;;;1.92;0.20;;;20.70;53.50;;;;;;5111505;28;20047;-74
2022/05/26 09:01:11;;;;;;;1.00;0.10;;;20.90;52.90;;;;;;5112333;28;20054;-73
2022/05/26 09:03:36;;;;;;;1.30;0.40;;;20.90;52.70;;;;;;5111794;28;20057;-73
2022/05/26 09:17:04;;;;;;;1.17;0.20;;;21.10;52.20;;;;;;5151731;27;1163280;-73
2022/05/26 09:19:45;;;;;;;0.60;0.10;;;21.10;51.80;;;;;;5152948;27;20046;-72
2022/05/26 09:22:38;;;;;;;0.77;0.20;;;21.00;52.30;;;;;;5153162;27;20049;-72
2022/05/26 09:25:04;;;;;;;0.55;0.30;;;20.90;52.60;;;;;;5152929;27;20045;-73
2022/05/26 09:27:35;;;;;;;1.63;0.10;;;20.80;52.60;;;;;;5153297;27;20038;-72
2022/05/26 09:30:26;;;;;;;0.52;0.10;;;20.80;52.60;;;;;;5153047;27;20427;-72
2022/05/26 09:32:53;;;;;;;1.63;0.40;;;20.80;52.50;;;;;;5152839;27;20550;-73
2022/05/26 09:38:02;;;;;;;1.13;0.30;;;20.80;52.40;;;;;;5152826;27;1165680;-73
2022/05/26 09:40:34;;;;;;;1.38;0.38;;;20.90;52.10;;;;;;5152948;27;20676;-73
2022/05/26 09:43:08;;;;;;;0.65;0.20;;;20.90;52.10;;;;;;5153020;27;20697;-72
2022/05/26 09:45:42;;;;;;;0.73;0.20;;;21.00;52.00;;;;;;5153033;27;20067;-73
2022/05/26 09:51:21;;;;;;;1.33;0.20;;;21.10;51.70;;;;;;5130300;27;20299;-72
2022/05/26 09:53:50;;;;;;;0.20;0.10;;;20.90;52.00;;;;;;5129199;28;20043;-73
2022/05/26 09:59:27;;;;;;;1.40;0.10;;;20.90;52.10;;;;;;5130230;27;20914;-73
2022/05/26 10:02:01;;;;;;;0.63;0.10;;;21.00;52.00;;;;;;5129077;27;20044;-73
2022/05/26 10:07:20;;;;;;;1.02;0.17;;;21.00;51.70;;;;;;5089473;28;20356;-73
2022/05/26 10:30:27;;;;;;;1.15;0.25;;;20.50;52.60;;;;;;5130200;27;20354;-74
2022/05/26 10:39:05;;;;;;;0.57;0.05;;;20.50;52.80;;;;;;5130389;27;20407;-73
2022/05/26 10:44:41;;;;;;;1.00;0.20;;;20.50;52.80;;;;;;5129119;27;20453;-73
2022/05/26 10:47:18;;;;;;;1.85;0.20;;;20.60;52.70;;;;;;5128739;28;20126;-73
2022/05/26 10:49:50;;;;;;;0.32;0.10;;;20.60;52.80;;;;;;5129181;28;20437;-73
2022/05/26 10:57:55;;;;;;;0.52;0.10;;;20.60;52.80;;;;;;5130334;27;20884;-73
2022/05/26 11:00:27;;;;;;;0.65;0.10;;;20.50;53.10;;;;;;5128980;28;20048;-73
2022/05/26 11:05:50;;;;;;;0.65;0.10;;;20.50;53.10;;;;;;5130334;27;20403;-72
2022/05/26 11:17:28;;;;;;;1.05;0.10;;;20.50;53.20;;;;;;5152936;27;20038;-74
2022/05/26 11:20:09;;;;;;;0.65;0.10;;;20.50;53.20;;;;;;5153298;27;20041;-74
2022/05/26 11:22:35;;;;;;;0.82;0.13;;;20.50;53.20;;;;;;5153137;27;20537;-73
2022/05/26 11:25:05;;;;;;;1.00;0.25;;;20.50;53.20;;;;;;5153276;27;20040;-73
2022/05/26 11:28:13;;;;;;;1.15;0.17;;;20.50;53.20;;;;;;5153062;27;20042;-73
2022/05/26 11:36:33;;;;;;;2.53;0.20;;;20.50;53.30;;;;;;5164625;27;1169127;-74
2022/05/26 11:39:01;;;;;;;1.20;0.10;;;20.50;53.40;;;;;;5153207;27;20049;-73
2022/05/26 11:44:10;;;;;;;2.05;0.40;;;20.50;53.30;;;;;;5130171;27;20759;-74
2022/05/26 11:52:45;;;;;;;0.60;0.10;;;20.50;53.20;;;;;;5157132;27;1155365;-71
2022/05/26 11:57:54;;;;;;;1.40;0.10;;;20.50;53.20;;;;;;5130255;27;20403;-75
2022/05/26 12:09:01;;;;;;;2.78;0.10;;;20.50;53.30;;;;;;5130234;27;20403;-67
2022/05/26 12:34:19;;;;;;;2.35;0.20;;;20.50;53.40;;;;;;5089505;28;20767;-74
2022/05/26 12:36:51;;;;;;;1.45;0.10;;;20.60;53.10;;;;;;5088138;28;20079;-74
2022/05/26 12:39:44;;;;;;;2.42;0.40;;;20.70;53.20;;;;;;5088280;28;20044;-74
2022/05/26 12:42:23;;;;;;;1.88;0.10;;;20.60;53.10;;;;;;5105170;28;20052;-74
2022/05/26 12:45:22;;;;;;;1.67;0.10;;;20.60;53.20;;;;;;5067950;28;20091;-75
2022/05/26 12:50:40;;;;;;;0.50;0.10;;;20.70;53.10;;;;;;5127044;27;1861918;-76
2022/05/26 12:53:14;;;;;;;1.77;0.30;;;20.70;53.00;;;;;;5153205;27;20550;-76
2022/05/26 13:01:15;;;;;;;1.27;0.10;;;20.60;53.10;;;;;;5130334;27;20357;-69
2022/05/26 13:12:01;;;;;;;0.88;0.52;;;20.60;53.20;;;;;;5153205;27;1152318;-74
2022/05/26 13:22:41;;;;;;;2.50;0.20;;;20.60;53.10;;;;;;5129126;27;20392;-74
2022/05/26 13:25:10;;;;;;;1.40;0.10;;;20.70;52.90;;;;;;5128941;28;20096;-74
2022/05/26 13:33:30;;;;;;;2.00;0.10;;;20.60;53.10;;;;;;5128868;27;20050;-73
2022/05/26 13:35:59;;;;;;;1.42;0.10;;;20.70;53.20;;;;;;5129012;28;20035;-74
2022/05/26 13:41:10;;;;;;;1.00;0.30;;;20.70;53.20;;;;;;5130172;27;20460;-74
2022/05/26 13:43:38;;;;;;;0.70;0.10;;;20.60;53.20;;;;;;5130226;27;20094;-74
2022/05/26 13:46:06;;;;;;;0.43;0.10;;;20.70;53.10;;;;;;5129184;27;20051;-74
2022/05/26 13:48:38;;;;;;;0.90;0.10;;;20.70;53.10;;;;;;5130129;27;20395;-74
2022/05/26 13:53:50;;;;;;;1.83;0.30;;;20.70;53.10;;;;;;5130251;27;20350;-74
2022/05/26 13:56:28;;;;;;;1.48;0.13;;;20.70;53.10;;;;;;5130357;27;20050;-75
2022/05/26 13:58:57;;;;;;;1.52;0.15;;;20.70;53.00;;;;;;5129113;27;20040;-74
2022/05/26 14:01:24;;;;;;;1.45;0.10;;;20.70;53.00;;;;;;5128932;28;20490;-73
2022/05/26 14:03:56;;;;;;;0.50;0.10;;;20.70;53.00;;;;;;5129084;28;20382;-74
2022/05/26 14:09:05;;;;;;;5.22;0.30;;;20.70;53.00;;;;;;5130277;27;20383;-75
2022/05/26 14:17:06;;;;;;;2.60;0.20;;;20.70;53.10;;;;;;5130320;27;20375;-73
2022/05/26 14:19:34;;;;;;;1.42;0.20;;;20.70;53.10;;;;;;5128954;28;20096;-75
2022/05/26 14:22:02;;;;;;;2.60;0.30;;;20.70;53.10;;;;;;5128904;27;20073;-73
2022/05/26 14:30:03;;;;;;;1.27;0.20;;;20.70;53.20;;;;;;5089492;27;20762;-69
2022/05/26 14:32:34;;;;;;;1.27;0.22;;;20.70;53.30;;;;;;5089406;28;20072;-71
2022/05/26 14:35:12;;;;;;;0.65;0.10;;;20.70;53.30;;;;;;5089364;28;20123;-74
2022/05/26 14:37:38;;;;;;;1.80;0.20;;;20.70;53.30;;;;;;5089649;28;20048;-74
2022/05/26 14:40:03;;;;;;;1.50;0.20;;;20.70;53.30;;;;;;5089248;28;20068;-74
2022/05/26 14:42:34;;;;;;;0.85;0.20;;;20.70;53.30;;;;;;5088032;28;20044;-75
2022/05/26 14:45:00;;;;;;;;;;;20.70;53.40;;;;;;5089562;28;20044;-74
2022/05/26 14:47:27;;;;;;;0.98;0.32;;;20.70;53.40;;;;;;5089102;28;20029;-74
2022/05/26 14:49:52;;;;;;;1.88;0.20;;;20.60;53.30;;;;;;5088041;28;20036;-74
2022/05/26 14:52:24;;;;;;;2.40;0.28;;;20.70;53.40;;;;;;5087879;28;20403;-75
2022/05/26 14:57:36;;;;;;;1.85;0.25;;;20.70;53.40;;;;;;5088738;28;20048;-74
2022/05/26 15:00:08;;;;;;;2.92;0.20;;;20.60;53.40;;;;;;5088914;28;20094;-75
2022/05/26 15:02:36;;;;;;;1.65;0.35;;;20.60;53.50;;;;;;5087683;28;20032;-71
2022/05/26 15:05:02;;;;;;;0.98;0.10;;;20.60;53.50;;;;;;5087547;28;20484;-75
2022/05/26 15:07:28;;;;;;;2.38;0.28;;;20.60;53.50;;;;;;5087698;28;20040;-75
2022/05/26 15:09:57;;;;;;;1.30;0.35;;;20.60;53.50;;;;;;5087729;28;20422;-74
2022/05/26 15:12:23;;;;;;;2.55;0.30;;;20.60;53.60;;;;;;5088583;28;20028;-74
2022/05/26 15:14:48;;;;;;;1.23;0.20;;;20.60;53.60;;;;;;5088657;28;20498;-74
2022/05/26 15:17:17;;;;;;;1.90;0.20;;;20.60;53.60;;;;;;5087588;28;20492;-75
2022/05/26 15:19:46;;;;;;;2.85;0.30;;;20.60;53.70;;;;;;5088604;28;20051;-74
2022/05/26 15:22:14;;;;;;;1.33;0.20;;;20.60;53.60;;;;;;5087510;28;20051;-74
2022/05/26 15:24:41;;;;;;;2.80;0.55;;;20.60;53.80;;;;;;5087432;28;20549;-76
2022/05/26 15:27:07;;;;;;;1.50;0.20;;;20.60;53.80;;;;;;5088302;28;20036;-74
2022/05/26 15:29:33;;;;;;;3.50;0.25;;;20.60;53.80;;;;;;5086688;28;20059;-76
2022/05/26 15:31:59;;;;;;;1.33;0.28;;;20.60;53.80;;;;;;5087000;28;20047;-74
2022/05/26 15:34:25;;;;;;;3.78;0.40;;;20.50;53.80;;;;;;5088308;28;20040;-75
2022/05/26 15:36:52;;;;;;;1.65;0.20;;;20.50;53.90;;;;;;5086178;28;20044;-67
2022/05/26 15:39:18;;;;;;;0.60;0.10;;;20.50;53.90;;;;;;5085842;28;20070;-75
2022/05/26 15:41:45;;;;;;;3.80;0.28;;;20.50;53.90;;;;;;5074458;28;20044;-74
2022/05/26 15:44:11;;;;;;;4.25;0.30;;;20.50;53.90;;;;;;5073252;28;20044;-75
2022/05/26 15:46:39;;;;;;;2.42;0.20;;;20.50;54.00;;;;;;5073489;28;20068;-74
2022/05/26 15:49:09;;;;;;;0.98;0.20;;;20.50;54.10;;;;;;5073324;28;20115;-74
2022/05/26 15:51:36;;;;;;;1.60;0.25;;;20.50;54.10;;;;;;5073450;28;20136;-74
2022/05/26 15:54:01;;;;;;;2.10;0.10;;;20.50;54.10;;;;;;5073422;28;20384;-74
2022/05/26 15:56:28;;;;;;;1.10;0.20;;;20.50;54.10;;;;;;5073040;28;20043;-75
2022/05/26 15:58:59;;;;;;;1.98;0.20;;;20.50;54.10;;;;;;5073333;28;20041;-74
2022/05/26 16:01:29;;;;;;;2.25;0.20;;;20.50;54.10;;;;;;5072955;28;20036;-75
2022/05/26 16:03:55;;;;;;;2.28;0.40;;;20.50;54.10;;;;;;5073037;28;20060;-74
2022/05/26 16:06:21;;;;;;;1.65;0.20;;;20.50;54.10;;;;;;5073121;28;20052;-74
2022/05/26 16:08:47;;;;;;;1.55;0.10;;;20.50;54.10;;;;;;5072813;28;20123;-74
2022/05/26 16:11:14;;;;;;;2.72;0.30;;;20.50;54.20;;;;;;5073984;28;20158;-74
2022/05/26 16:13:41;;;;;;;0.63;0.20;;;20.50;54.10;;;;;;5072824;28;20044;-74
2022/05/26 16:16:07;;;;;;;1.02;0.13;;;20.50;54.10;;;;;;5072931;28;20070;-75
2022/05/26 16:18:33;;;;;;;4.30;0.30;;;20.50;54.10;;;;;;5072718;28;20036;-75
2022/05/26 16:21:02;;;;;;;2.20;0.20;;;20.50;54.10;;;;;;5072899;28;20045;-74
2022/05/26 16:23:28;;;;;;;2.13;0.20;;;20.50;54.10;;;;;;5072595;28;20055;-75
2022/05/26 16:25:57;;;;;;;3.10;0.30;;;20.50;54.10;;;;;;5072546;28;20476;-73
2022/05/26 16:28:24;;;;;;;2.80;0.22;;;20.50;54.10;;;;;;5072238;28;20076;-74
2022/05/26 16:30:51;;;;;;;2.22;0.20;;;20.50;54.10;;;;;;5072430;28;20483;-74
2022/05/26 16:33:19;;;;;;;2.90;0.57;;;20.50;54.10;;;;;;5072429;28;20122;-75
2022/05/26 16:38:33;;;;;;;1.67;0.30;;;20.40;54.10;;;;;;5072288;28;20422;-75
2022/05/26 16:41:01;;;;;;;2.53;0.25;;;20.40;54.10;;;;;;5072506;28;20036;-75
2022/05/26 16:43:27;;;;;;;2.90;0.52;;;20.50;54.20;;;;;;5072069;28;20048;-74
2022/05/26 16:45:52;;;;;;;2.70;0.40;;;20.40;54.20;;;;;;5072197;28;20040;-74
2022/05/26 16:48:18;;;;;;;1.70;0.50;;;20.40;54.30;;;;;;5071962;28;20052;-67
2022/05/26 16:50:44;;;;;;;2.08;0.20;;;20.40;54.30;;;;;;5071952;28;20089;-75
2022/05/26 16:53:11;;;;;;;1.33;0.20;;;20.40;54.30;;;;;;5071421;28;20181;-75
2022/05/26 16:55:42;;;;;;;0.50;0.10;;;20.40;54.30;;;;;;5072237;28;20388;-74
2022/05/26 16:58:08;;;;;;;2.85;0.50;;;20.40;54.30;;;;;;5073279;28;20045;-75